CHH7003 ZJHK-ZGGG
Flight info
| Callsign | CHH7003 |
|---|---|
| Flight time | 0h 48m |
| Altitude | 22600 |
| Route | AGTEL9XD AGTEL W71 LH DCT GYA GYA8 |
| Aircraft | A20N/M-SDE2E3FGHIRWXY/LB1 |
Departure
| Time | 2026-04-24 23:39 |
|---|---|
| Airport | Haikou Meilan International Airport (ZJHK) |
Arrival
| Time | 2026-04-25 00:27 |
|---|---|
| Airport | Guangzhou Baiyun International Airport (ZGGG) |
| Time | Latitude | Longitude | Altitude | Speed | Heading |
|---|---|---|---|---|---|
| 2026-04-24 23:19 | 19.94680 | 110.45450 | 70 ft | 0 kts | 134° |
| 2026-04-24 23:28 | 19.94681 | 110.45450 | 70 ft | 0 kts | 134° |
| 2026-04-24 23:28 | 19.94686 | 110.45445 | 70 ft | 2 kts | 133° |
| 2026-04-24 23:28 | 19.94696 | 110.45433 | 69 ft | 2 kts | 135° |
| 2026-04-24 23:29 | 19.94706 | 110.45422 | 69 ft | 2 kts | 134° |
| 2026-04-24 23:29 | 19.94717 | 110.45410 | 68 ft | 2 kts | 135° |
| 2026-04-24 23:29 | 19.94722 | 110.45396 | 68 ft | 2 kts | 76° |
| 2026-04-24 23:29 | 19.94714 | 110.45383 | 68 ft | 2 kts | 35° |
| 2026-04-24 23:30 | 19.94703 | 110.45372 | 68 ft | 2 kts | 60° |
| 2026-04-24 23:30 | 19.94697 | 110.45358 | 68 ft | 2 kts | 72° |
| 2026-04-24 23:30 | 19.94694 | 110.45342 | 67 ft | 2 kts | 85° |
| 2026-04-24 23:30 | 19.94693 | 110.45334 | 67 ft | 1 kts | 92° |
| 2026-04-24 23:31 | 19.94694 | 110.45331 | 67 ft | 0 kts | 91° |
| 2026-04-24 23:35 | 19.94694 | 110.45333 | 67 ft | 3 kts | 91° |
| 2026-04-24 23:35 | 19.94728 | 110.45383 | 68 ft | 0 kts | 3° |
| 2026-04-24 23:36 | 19.94767 | 110.45365 | 66 ft | 20 kts | 321° |
| 2026-04-24 23:36 | 19.94854 | 110.45271 | 63 ft | 18 kts | 315° |
| 2026-04-24 23:36 | 19.94905 | 110.45212 | 62 ft | 9 kts | 300° |
| 2026-04-24 23:36 | 19.94904 | 110.45136 | 61 ft | 11 kts | 261° |
| 2026-04-24 23:37 | 19.94918 | 110.45033 | 60 ft | 20 kts | 303° |
| 2026-04-24 23:37 | 19.95014 | 110.44913 | 58 ft | 23 kts | 310° |
| 2026-04-24 23:37 | 19.95239 | 110.44822 | 58 ft | 17 kts | 3° |
| 2026-04-24 23:38 | 19.95353 | 110.44856 | 58 ft | 16 kts | 46° |
| 2026-04-24 23:38 | 19.95374 | 110.44970 | 57 ft | 16 kts | 92° |
| 2026-04-24 23:38 | 19.95374 | 110.45252 | 59 ft | 71 kts | 89° |
| 2026-04-24 23:38 | 19.95377 | 110.46012 | 67 ft | 132 kts | 89° |
| 2026-04-24 23:39 | 19.95383 | 110.47169 | 130 ft | 174 kts | 89° |
| 2026-04-24 23:39 | 19.95389 | 110.48469 | 721 ft | 174 kts | 89° |
| 2026-04-24 23:39 | 19.95523 | 110.49681 | 1524 ft | 164 kts | 63° |
| 2026-04-24 23:39 | 19.96271 | 110.50500 | 2217 ft | 164 kts | 30° |
| 2026-04-24 23:40 | 19.97467 | 110.50681 | 2618 ft | 187 kts | 348° |
| 2026-04-24 23:40 | 19.98692 | 110.50069 | 3096 ft | 201 kts | 335° |
| 2026-04-24 23:40 | 19.99982 | 110.49356 | 3547 ft | 217 kts | 334° |
| 2026-04-24 23:40 | 20.01380 | 110.48571 | 3935 ft | 239 kts | 335° |
| 2026-04-24 23:41 | 20.02915 | 110.47771 | 4514 ft | 252 kts | 338° |
| 2026-04-24 23:41 | 20.04532 | 110.47086 | 5407 ft | 251 kts | 340° |
| 2026-04-24 23:41 | 20.06142 | 110.46441 | 6273 ft | 251 kts | 339° |
| 2026-04-24 23:41 | 20.07759 | 110.45766 | 7098 ft | 253 kts | 338° |
| 2026-04-24 23:42 | 20.09398 | 110.45055 | 7902 ft | 254 kts | 338° |
| 2026-04-24 23:42 | 20.11037 | 110.44326 | 8639 ft | 257 kts | 337° |
| 2026-04-24 23:42 | 20.12684 | 110.43582 | 9379 ft | 259 kts | 336° |
| 2026-04-24 23:42 | 20.14327 | 110.42835 | 10090 ft | 261 kts | 336° |
| 2026-04-24 23:43 | 20.16004 | 110.42069 | 10783 ft | 264 kts | 336° |
| 2026-04-24 23:43 | 20.17684 | 110.41300 | 11470 ft | 266 kts | 337° |
| 2026-04-24 23:43 | 20.19388 | 110.40520 | 12140 ft | 268 kts | 337° |
| 2026-04-24 23:43 | 20.21111 | 110.39731 | 12795 ft | 271 kts | 337° |
| 2026-04-24 23:44 | 20.22855 | 110.38934 | 13441 ft | 273 kts | 337° |
| 2026-04-24 23:44 | 20.24602 | 110.38139 | 14070 ft | 275 kts | 338° |
| 2026-04-24 23:44 | 20.26398 | 110.37436 | 14645 ft | 279 kts | 341° |
| 2026-04-24 23:44 | 20.28290 | 110.36780 | 14949 ft | 294 kts | 342° |
| 2026-04-24 23:45 | 20.30293 | 110.36095 | 15218 ft | 309 kts | 342° |
| 2026-04-24 23:45 | 20.32391 | 110.35376 | 15478 ft | 324 kts | 342° |
| 2026-04-24 23:45 | 20.34591 | 110.34622 | 15730 ft | 339 kts | 341° |
| 2026-04-24 23:45 | 20.36899 | 110.33830 | 15972 ft | 353 kts | 341° |
| 2026-04-24 23:46 | 20.39287 | 110.33009 | 16199 ft | 366 kts | 341° |
| 2026-04-24 23:46 | 20.41740 | 110.32166 | 16415 ft | 379 kts | 341° |
| 2026-04-24 23:46 | 20.44310 | 110.31283 | 16625 ft | 391 kts | 341° |
| 2026-04-24 23:46 | 20.46937 | 110.30408 | 16818 ft | 403 kts | 344° |
| 2026-04-24 23:47 | 20.49741 | 110.29796 | 16994 ft | 414 kts | 351° |
| 2026-04-24 23:47 | 20.52666 | 110.29556 | 17177 ft | 425 kts | 358° |
| 2026-04-24 23:47 | 20.55627 | 110.29655 | 17470 ft | 431 kts | 1° |
| 2026-04-24 23:47 | 20.58630 | 110.29845 | 17885 ft | 433 kts | 2° |
| 2026-04-24 23:48 | 20.61649 | 110.30050 | 18297 ft | 436 kts | 2° |
| 2026-04-24 23:48 | 20.64684 | 110.30258 | 18663 ft | 439 kts | 2° |
| 2026-04-24 23:48 | 20.67768 | 110.30466 | 19031 ft | 442 kts | 2° |
| 2026-04-24 23:48 | 20.70860 | 110.30671 | 19394 ft | 445 kts | 2° |
| 2026-04-24 23:49 | 20.73970 | 110.30878 | 19743 ft | 448 kts | 2° |
| 2026-04-24 23:49 | 20.77091 | 110.31084 | 20096 ft | 451 kts | 2° |
| 2026-04-24 23:49 | 20.80208 | 110.31287 | 20430 ft | 454 kts | 2° |
| 2026-04-24 23:49 | 20.83375 | 110.31496 | 20760 ft | 457 kts | 2° |
| 2026-04-24 23:50 | 20.86561 | 110.31707 | 21094 ft | 460 kts | 2° |
| 2026-04-24 23:50 | 20.89803 | 110.31920 | 21440 ft | 462 kts | 1° |
| 2026-04-24 23:50 | 20.93028 | 110.32133 | 21767 ft | 465 kts | 2° |
| 2026-04-24 23:50 | 20.96258 | 110.32345 | 22064 ft | 468 kts | 2° |
| 2026-04-24 23:51 | 20.99507 | 110.32559 | 22367 ft | 471 kts | 1° |
| 2026-04-24 23:51 | 21.02805 | 110.32748 | 22600 ft | 473 kts | 1° |
| 2026-04-24 23:51 | 21.06097 | 110.32922 | 22618 ft | 473 kts | 1° |
| 2026-04-24 23:51 | 21.09384 | 110.33147 | 22619 ft | 473 kts | 5° |
| 2026-04-24 23:52 | 21.12600 | 110.34032 | 22620 ft | 477 kts | 20° |
| 2026-04-24 23:52 | 21.15509 | 110.35713 | 22622 ft | 481 kts | 33° |
| 2026-04-24 23:52 | 21.18034 | 110.38089 | 22629 ft | 483 kts | 43° |
| 2026-04-24 23:52 | 21.20377 | 110.40641 | 22629 ft | 483 kts | 44° |
| 2026-04-24 23:53 | 21.22736 | 110.43250 | 22624 ft | 483 kts | 44° |
| 2026-04-24 23:53 | 21.25059 | 110.45821 | 22625 ft | 483 kts | 44° |
| 2026-04-24 23:53 | 21.27413 | 110.48417 | 22625 ft | 483 kts | 44° |
| 2026-04-24 23:53 | 21.29764 | 110.51004 | 22624 ft | 483 kts | 44° |
| 2026-04-24 23:54 | 21.32084 | 110.53549 | 22624 ft | 483 kts | 44° |
| 2026-04-24 23:54 | 21.34445 | 110.56140 | 22625 ft | 483 kts | 44° |
| 2026-04-24 23:54 | 21.36782 | 110.58701 | 22624 ft | 483 kts | 44° |
| 2026-04-24 23:54 | 21.39129 | 110.61274 | 22624 ft | 483 kts | 44° |
| 2026-04-24 23:55 | 21.41479 | 110.63853 | 22624 ft | 484 kts | 44° |
| 2026-04-24 23:55 | 21.43850 | 110.66454 | 22624 ft | 484 kts | 44° |
| 2026-04-24 23:55 | 21.46189 | 110.69019 | 22624 ft | 484 kts | 44° |
| 2026-04-24 23:55 | 21.48560 | 110.71621 | 22625 ft | 484 kts | 44° |
| 2026-04-24 23:56 | 21.50907 | 110.74200 | 22628 ft | 484 kts | 44° |
| 2026-04-24 23:56 | 21.53242 | 110.76765 | 22625 ft | 484 kts | 44° |
| 2026-04-24 23:56 | 21.55620 | 110.79377 | 22622 ft | 484 kts | 44° |
| 2026-04-24 23:56 | 21.57955 | 110.81945 | 22625 ft | 484 kts | 44° |
| 2026-04-24 23:57 | 21.60305 | 110.84534 | 22626 ft | 484 kts | 44° |
| 2026-04-24 23:57 | 21.62681 | 110.87151 | 22624 ft | 485 kts | 44° |
| 2026-04-24 23:57 | 21.65021 | 110.89726 | 22626 ft | 484 kts | 44° |
| 2026-04-24 23:57 | 21.67367 | 110.92313 | 22628 ft | 485 kts | 44° |
| 2026-04-24 23:58 | 21.69709 | 110.94893 | 22625 ft | 485 kts | 44° |
| 2026-04-24 23:58 | 21.72083 | 110.97512 | 22623 ft | 484 kts | 44° |
| 2026-04-24 23:58 | 21.74435 | 111.00109 | 22624 ft | 485 kts | 44° |
| 2026-04-24 23:58 | 21.76765 | 111.02683 | 22627 ft | 485 kts | 44° |
| 2026-04-24 23:59 | 21.79143 | 111.05310 | 22627 ft | 485 kts | 44° |
| 2026-04-24 23:59 | 21.81493 | 111.07906 | 22628 ft | 485 kts | 44° |
| 2026-04-24 23:59 | 21.83831 | 111.10492 | 22628 ft | 485 kts | 44° |
| 2026-04-24 23:59 | 21.86170 | 111.13080 | 22631 ft | 485 kts | 44° |
| 2026-04-25 00:00 | 21.88550 | 111.15715 | 22631 ft | 485 kts | 44° |
| 2026-04-25 00:00 | 21.90887 | 111.18301 | 22636 ft | 486 kts | 44° |
| 2026-04-25 00:00 | 21.93257 | 111.20924 | 22640 ft | 485 kts | 44° |
| 2026-04-25 00:00 | 21.95603 | 111.23525 | 22647 ft | 485 kts | 44° |
| 2026-04-25 00:01 | 21.97949 | 111.26131 | 22649 ft | 486 kts | 44° |
| 2026-04-25 00:01 | 22.00294 | 111.28731 | 22647 ft | 486 kts | 44° |
| 2026-04-25 00:01 | 22.02657 | 111.31355 | 22650 ft | 486 kts | 44° |
| 2026-04-25 00:01 | 22.05000 | 111.33958 | 22653 ft | 486 kts | 44° |
| 2026-04-25 00:02 | 22.07352 | 111.36572 | 22654 ft | 486 kts | 44° |
| 2026-04-25 00:02 | 22.09708 | 111.39192 | 22660 ft | 486 kts | 44° |
| 2026-04-25 00:02 | 22.12058 | 111.41810 | 22661 ft | 486 kts | 44° |
| 2026-04-25 00:02 | 22.14419 | 111.44436 | 22660 ft | 486 kts | 44° |
| 2026-04-25 00:03 | 22.16765 | 111.47051 | 22660 ft | 486 kts | 44° |
| 2026-04-25 00:03 | 22.19130 | 111.49684 | 22658 ft | 486 kts | 44° |
| 2026-04-25 00:03 | 22.21460 | 111.52281 | 22659 ft | 486 kts | 44° |
| 2026-04-25 00:03 | 22.23836 | 111.54933 | 22660 ft | 486 kts | 44° |
| 2026-04-25 00:04 | 22.26176 | 111.57546 | 22660 ft | 486 kts | 44° |
| 2026-04-25 00:04 | 22.28529 | 111.60175 | 22660 ft | 487 kts | 44° |
| 2026-04-25 00:04 | 22.30866 | 111.62785 | 22659 ft | 486 kts | 44° |
| 2026-04-25 00:04 | 22.33238 | 111.65437 | 22658 ft | 486 kts | 44° |
| 2026-04-25 00:05 | 22.35559 | 111.68031 | 22657 ft | 486 kts | 44° |
| 2026-04-25 00:05 | 22.37901 | 111.70654 | 22659 ft | 486 kts | 44° |
| 2026-04-25 00:05 | 22.40258 | 111.73292 | 22662 ft | 486 kts | 44° |
| 2026-04-25 00:05 | 22.42602 | 111.75919 | 22664 ft | 486 kts | 44° |
| 2026-04-25 00:06 | 22.44963 | 111.78564 | 22667 ft | 486 kts | 44° |
| 2026-04-25 00:06 | 22.47292 | 111.81175 | 22669 ft | 486 kts | 44° |
| 2026-04-25 00:06 | 22.49642 | 111.83812 | 22665 ft | 486 kts | 44° |
| 2026-04-25 00:06 | 22.51988 | 111.86446 | 22666 ft | 486 kts | 44° |
| 2026-04-25 00:07 | 22.54335 | 111.89083 | 22663 ft | 486 kts | 43° |
| 2026-04-25 00:07 | 22.56674 | 111.91712 | 22660 ft | 486 kts | 43° |
| 2026-04-25 00:07 | 22.59012 | 111.94341 | 22658 ft | 486 kts | 43° |
| 2026-04-25 00:07 | 22.61354 | 111.96975 | 22656 ft | 486 kts | 43° |
| 2026-04-25 00:08 | 22.63719 | 111.99635 | 22657 ft | 486 kts | 43° |
| 2026-04-25 00:08 | 22.66052 | 112.02264 | 22656 ft | 486 kts | 43° |
| 2026-04-25 00:08 | 22.68395 | 112.04902 | 22658 ft | 486 kts | 43° |
| 2026-04-25 00:08 | 22.70745 | 112.07552 | 22660 ft | 485 kts | 43° |
| 2026-04-25 00:09 | 22.73072 | 112.10177 | 22657 ft | 486 kts | 43° |
| 2026-04-25 00:09 | 22.75419 | 112.12826 | 22658 ft | 486 kts | 43° |
| 2026-04-25 00:09 | 22.77742 | 112.15452 | 22654 ft | 485 kts | 43° |
| 2026-04-25 00:09 | 22.80069 | 112.18079 | 22463 ft | 486 kts | 43° |
| 2026-04-25 00:10 | 22.82416 | 112.20730 | 21683 ft | 484 kts | 43° |
| 2026-04-25 00:10 | 22.84707 | 112.23322 | 20918 ft | 480 kts | 43° |
| 2026-04-25 00:10 | 22.87003 | 112.25923 | 20220 ft | 469 kts | 43° |
| 2026-04-25 00:10 | 22.89205 | 112.28423 | 19571 ft | 452 kts | 43° |
| 2026-04-25 00:11 | 22.91372 | 112.30879 | 18933 ft | 447 kts | 43° |
| 2026-04-25 00:11 | 22.92780 | 112.32473 | 18525 ft | 445 kts | 43° |
| 2026-04-25 00:11 | 22.95615 | 112.35690 | 17694 ft | 440 kts | 43° |
| 2026-04-25 00:11 | 22.97713 | 112.38071 | 17082 ft | 436 kts | 43° |
| 2026-04-25 00:12 | 22.99816 | 112.40461 | 16464 ft | 433 kts | 43° |
| 2026-04-25 00:12 | 23.01880 | 112.42807 | 15842 ft | 429 kts | 43° |
| 2026-04-25 00:12 | 23.03926 | 112.45132 | 15219 ft | 426 kts | 44° |
| 2026-04-25 00:12 | 23.05750 | 112.47658 | 14576 ft | 427 kts | 57° |
| 2026-04-25 00:13 | 23.06822 | 112.50615 | 13955 ft | 429 kts | 74° |
| 2026-04-25 00:13 | 23.07110 | 112.53848 | 13345 ft | 428 kts | 87° |
| 2026-04-25 00:13 | 23.07089 | 112.57046 | 12737 ft | 424 kts | 88° |
| 2026-04-25 00:13 | 23.07047 | 112.60211 | 12193 ft | 418 kts | 88° |
| 2026-04-25 00:14 | 23.07014 | 112.63337 | 11776 ft | 408 kts | 88° |
| 2026-04-25 00:14 | 23.06996 | 112.66380 | 11465 ft | 396 kts | 89° |
| 2026-04-25 00:14 | 23.06988 | 112.69291 | 11166 ft | 385 kts | 88° |
| 2026-04-25 00:14 | 23.06982 | 112.72154 | 10885 ft | 375 kts | 89° |
| 2026-04-25 00:15 | 23.06970 | 112.74940 | 10684 ft | 362 kts | 89° |
| 2026-04-25 00:15 | 23.06948 | 112.77624 | 10429 ft | 352 kts | 89° |
| 2026-04-25 00:15 | 23.06926 | 112.80242 | 10175 ft | 343 kts | 89° |
| 2026-04-25 00:15 | 23.06904 | 112.82800 | 10061 ft | 325 kts | 89° |
| 2026-04-25 00:16 | 23.06883 | 112.85146 | 9971 ft | 301 kts | 89° |
| 2026-04-25 00:16 | 23.06863 | 112.87392 | 9908 ft | 297 kts | 89° |
| 2026-04-25 00:16 | 23.06845 | 112.89629 | 9654 ft | 299 kts | 89° |
| 2026-04-25 00:16 | 23.06826 | 112.91878 | 9295 ft | 298 kts | 89° |
| 2026-04-25 00:17 | 23.06805 | 112.94125 | 8947 ft | 297 kts | 89° |
| 2026-04-25 00:17 | 23.06786 | 112.96358 | 8608 ft | 295 kts | 89° |
| 2026-04-25 00:17 | 23.06765 | 112.98578 | 8275 ft | 293 kts | 89° |
| 2026-04-25 00:17 | 23.06743 | 113.00787 | 7947 ft | 291 kts | 89° |
| 2026-04-25 00:18 | 23.06723 | 113.02936 | 7802 ft | 281 kts | 89° |
| 2026-04-25 00:18 | 23.06702 | 113.05000 | 7791 ft | 266 kts | 89° |
| 2026-04-25 00:18 | 23.06682 | 113.06973 | 7794 ft | 257 kts | 89° |
| 2026-04-25 00:18 | 23.06644 | 113.08909 | 7752 ft | 259 kts | 93° |
| 2026-04-25 00:19 | 23.06388 | 113.10838 | 7383 ft | 262 kts | 102° |
| 2026-04-25 00:19 | 23.05970 | 113.12766 | 7030 ft | 263 kts | 103° |
| 2026-04-25 00:19 | 23.05523 | 113.14697 | 6685 ft | 263 kts | 103° |
| 2026-04-25 00:19 | 23.05083 | 113.16605 | 6354 ft | 262 kts | 103° |
| 2026-04-25 00:20 | 23.04737 | 113.18547 | 5994 ft | 262 kts | 88° |
| 2026-04-25 00:20 | 23.05209 | 113.20412 | 5692 ft | 254 kts | 58° |
| 2026-04-25 00:20 | 23.06270 | 113.21845 | 5392 ft | 243 kts | 37° |
| 2026-04-25 00:20 | 23.07720 | 113.22797 | 5113 ft | 243 kts | 20° |
| 2026-04-25 00:21 | 23.09308 | 113.23360 | 4887 ft | 236 kts | 13° |
| 2026-04-25 00:21 | 23.10882 | 113.23772 | 4688 ft | 229 kts | 12° |
| 2026-04-25 00:21 | 23.12445 | 113.24161 | 4454 ft | 225 kts | 12° |
| 2026-04-25 00:21 | 23.13967 | 113.24551 | 4227 ft | 222 kts | 13° |
| 2026-04-25 00:22 | 23.15444 | 113.24939 | 4007 ft | 218 kts | 13° |
| 2026-04-25 00:22 | 23.16901 | 113.25330 | 3789 ft | 214 kts | 14° |
| 2026-04-25 00:22 | 23.18338 | 113.25721 | 3567 ft | 211 kts | 14° |
| 2026-04-25 00:22 | 23.19759 | 113.26108 | 3351 ft | 207 kts | 14° |
| 2026-04-25 00:23 | 23.21148 | 113.26486 | 3128 ft | 203 kts | 14° |
| 2026-04-25 00:23 | 23.22508 | 113.26857 | 2880 ft | 202 kts | 15° |
| 2026-04-25 00:23 | 23.23878 | 113.27229 | 2613 ft | 200 kts | 14° |
| 2026-04-25 00:23 | 23.25212 | 113.27592 | 2437 ft | 195 kts | 14° |
| 2026-04-25 00:24 | 23.26532 | 113.27949 | 2166 ft | 190 kts | 14° |
| 2026-04-25 00:24 | 23.27770 | 113.28284 | 1884 ft | 178 kts | 14° |
| 2026-04-25 00:24 | 23.28943 | 113.28602 | 1654 ft | 165 kts | 14° |
| 2026-04-25 00:24 | 23.30016 | 113.28893 | 1421 ft | 154 kts | 14° |
| 2026-04-25 00:25 | 23.31014 | 113.29163 | 1218 ft | 141 kts | 14° |
| 2026-04-25 00:25 | 23.31936 | 113.29412 | 1033 ft | 134 kts | 14° |
| 2026-04-25 00:25 | 23.32854 | 113.29665 | 881 ft | 135 kts | 15° |
| 2026-04-25 00:25 | 23.33770 | 113.29918 | 709 ft | 136 kts | 14° |
| 2026-04-25 00:26 | 23.34697 | 113.30154 | 526 ft | 136 kts | 13° |
| 2026-04-25 00:26 | 23.35623 | 113.30400 | 348 ft | 137 kts | 14° |
| 2026-04-25 00:26 | 23.36558 | 113.30660 | 175 ft | 137 kts | 14° |
| 2026-04-25 00:26 | 23.37482 | 113.30913 | 54 ft | 131 kts | 14° |
| 2026-04-25 00:27 | 23.38233 | 113.31113 | 53 ft | 86 kts | 13° |
| 2026-04-25 00:27 | 23.38648 | 113.31228 | 53 ft | 36 kts | 14° |
| 2026-04-25 00:27 | 23.38808 | 113.31271 | 53 ft | 25 kts | 13° |
| 2026-04-25 00:27 | 23.38988 | 113.31296 | 53 ft | 24 kts | 356° |
| 2026-04-25 00:28 | 23.39154 | 113.31258 | 53 ft | 23 kts | 343° |
| 2026-04-25 00:28 | 23.39306 | 113.31220 | 53 ft | 21 kts | 348° |
| 2026-04-25 00:28 | 23.39403 | 113.31168 | 53 ft | 13 kts | 263° |
| 2026-04-25 00:28 | 23.39323 | 113.31074 | 53 ft | 28 kts | 222° |
| 2026-04-25 00:29 | 23.39168 | 113.30969 | 53 ft | 24 kts | 203° |
| 2026-04-25 00:29 | 23.39019 | 113.30891 | 53 ft | 23 kts | 214° |
| 2026-04-25 00:29 | 23.38896 | 113.30778 | 53 ft | 22 kts | 228° |
| 2026-04-25 00:29 | 23.38928 | 113.30693 | 53 ft | 10 kts | 294° |
| 2026-04-25 00:30 | 23.38957 | 113.30568 | 53 ft | 19 kts | 284° |
| 2026-04-25 00:30 | 23.39064 | 113.30529 | 53 ft | 18 kts | 12° |
| 2026-04-25 00:30 | 23.39182 | 113.30537 | 53 ft | 14 kts | 304° |
| 2026-04-25 00:30 | 23.39167 | 113.30452 | 53 ft | 11 kts | 250° |
| 2026-04-25 00:31 | 23.39157 | 113.30426 | 53 ft | 0 kts | 246° |
| 2026-04-25 00:31 | 23.39156 | 113.30424 | 53 ft | 0 kts | 247° |